sensor_id;sensor_type;location;lat;lon;timestamp;temperature;humidity
65040;HTU21D;51606;45.000;38.612;2022-11-20T00:02:01;9.07;85.62
65040;HTU21D;51606;45.000;38.612;2022-11-20T00:04:48;9.00;85.64
65040;HTU21D;51606;45.000;38.612;2022-11-20T00:07:14;8.93;85.69
65040;HTU21D;51606;45.000;38.612;2022-11-20T00:09:41;8.89;85.75
65040;HTU21D;51606;45.000;38.612;2022-11-20T00:12:07;8.85;85.69
65040;HTU21D;51606;45.000;38.612;2022-11-20T00:14:34;8.80;85.74
65040;HTU21D;51606;45.000;38.612;2022-11-20T00:17:00;8.76;85.78
65040;HTU21D;51606;45.000;38.612;2022-11-20T00:19:27;8.75;85.74
65040;HTU21D;51606;45.000;38.612;2022-11-20T00:21:53;8.70;85.71
65040;HTU21D;51606;45.000;38.612;2022-11-20T00:24:21;8.61;85.76
65040;HTU21D;51606;45.000;38.612;2022-11-20T00:26:47;8.57;85.85
65040;HTU21D;51606;45.000;38.612;2022-11-20T00:29:14;8.52;85.84
65040;HTU21D;51606;45.000;38.612;2022-11-20T00:31:41;8.50;85.90
65040;HTU21D;51606;45.000;38.612;2022-11-20T00:34:09;8.49;85.80
65040;HTU21D;51606;45.000;38.612;2022-11-20T00:36:35;8.45;85.78
65040;HTU21D;51606;45.000;38.612;2022-11-20T00:39:02;8.43;85.76
65040;HTU21D;51606;45.000;38.612;2022-11-20T00:41:29;8.36;85.73
65040;HTU21D;51606;45.000;38.612;2022-11-20T00:43:56;8.31;85.81
65040;HTU21D;51606;45.000;38.612;2022-11-20T00:46:25;8.28;85.78
65040;HTU21D;51606;45.000;38.612;2022-11-20T00:48:52;8.20;85.82
65040;HTU21D;51606;45.000;38.612;2022-11-20T00:51:21;8.17;85.87
65040;HTU21D;51606;45.000;38.612;2022-11-20T00:53:48;8.13;85.90
65040;HTU21D;51606;45.000;38.612;2022-11-20T00:56:17;8.15;85.88
65040;HTU21D;51606;45.000;38.612;2022-11-20T00:58:47;8.16;85.79
65040;HTU21D;51606;45.000;38.612;2022-11-20T01:01:17;8.14;85.71
65040;HTU21D;51606;45.000;38.612;2022-11-20T01:03:45;8.11;85.68
65040;HTU21D;51606;45.000;38.612;2022-11-20T01:06:21;8.06;85.76
65040;HTU21D;51606;45.000;38.612;2022-11-20T01:08:48;8.03;85.80
65040;HTU21D;51606;45.000;38.612;2022-11-20T01:11:18;8.01;85.82
65040;HTU21D;51606;45.000;38.612;2022-11-20T01:13:46;7.96;85.77
65040;HTU21D;51606;45.000;38.612;2022-11-20T01:16:19;7.89;85.84
65040;HTU21D;51606;45.000;38.612;2022-11-20T01:18:48;7.82;85.93
65040;HTU21D;51606;45.000;38.612;2022-11-20T01:21:20;7.76;86.03
65040;HTU21D;51606;45.000;38.612;2022-11-20T01:23:48;7.69;86.03
65040;HTU21D;51606;45.000;38.612;2022-11-20T01:26:17;7.63;86.10
65040;HTU21D;51606;45.000;38.612;2022-11-20T01:28:45;7.56;86.15
65040;HTU21D;51606;45.000;38.612;2022-11-20T01:33:39;7.44;86.22
65040;HTU21D;51606;45.000;38.612;2022-11-20T01:36:08;7.39;86.27
65040;HTU21D;51606;45.000;38.612;2022-11-20T01:38:34;7.33;86.31
65040;HTU21D;51606;45.000;38.612;2022-11-20T01:41:01;7.30;86.28
65040;HTU21D;51606;45.000;38.612;2022-11-20T01:43:27;7.27;86.32
65040;HTU21D;51606;45.000;38.612;2022-11-20T01:51:21;7.24;86.16
65040;HTU21D;51606;45.000;38.612;2022-11-20T01:53:50;7.19;86.16
65040;HTU21D;51606;45.000;38.612;2022-11-20T01:56:18;7.15;86.20
65040;HTU21D;51606;45.000;38.612;2022-11-20T01:58:50;7.12;86.19
65040;HTU21D;51606;45.000;38.612;2022-11-20T02:01:18;7.05;86.19
65040;HTU21D;51606;45.000;38.612;2022-11-20T02:03:45;6.98;86.26
65040;HTU21D;51606;45.000;38.612;2022-11-20T02:06:24;6.90;86.32
65040;HTU21D;51606;45.000;38.612;2022-11-20T02:08:52;6.80;86.41
65040;HTU21D;51606;45.000;38.612;2022-11-20T02:11:19;6.68;86.57
65040;HTU21D;51606;45.000;38.612;2022-11-20T02:13:46;6.59;86.67
65040;HTU21D;51606;45.000;38.612;2022-11-20T02:16:23;6.53;86.76
65040;HTU21D;51606;45.000;38.612;2022-11-20T02:18:51;6.51;86.75
65040;HTU21D;51606;45.000;38.612;2022-11-20T02:26:29;6.48;86.51
65040;HTU21D;51606;45.000;38.612;2022-11-20T02:28:58;6.45;86.43
65040;HTU21D;51606;45.000;38.612;2022-11-20T02:31:25;6.44;86.39
65040;HTU21D;51606;45.000;38.612;2022-11-20T02:33:56;6.39;86.40
65040;HTU21D;51606;45.000;38.612;2022-11-20T02:36:24;6.38;86.38
65040;HTU21D;51606;45.000;38.612;2022-11-20T02:38:52;6.36;86.35
65040;HTU21D;51606;45.000;38.612;2022-11-20T02:41:19;6.33;86.31
65040;HTU21D;51606;45.000;38.612;2022-11-20T02:43:45;6.33;86.26
65040;HTU21D;51606;45.000;38.612;2022-11-20T02:46:12;6.35;86.20
65040;HTU21D;51606;45.000;38.612;2022-11-20T02:48:38;6.36;86.12
65040;HTU21D;51606;45.000;38.612;2022-11-20T02:51:05;6.37;86.05
65040;HTU21D;51606;45.000;38.612;2022-11-20T02:53:31;6.38;85.97
65040;HTU21D;51606;45.000;38.612;2022-11-20T02:55:57;6.38;85.93
65040;HTU21D;51606;45.000;38.612;2022-11-20T02:58:24;6.40;85.89
65040;HTU21D;51606;45.000;38.612;2022-11-20T03:00:50;6.38;85.89
65040;HTU21D;51606;45.000;38.612;2022-11-20T03:03:18;6.36;85.87
65040;HTU21D;51606;45.000;38.612;2022-11-20T03:05:44;6.34;85.93
65040;HTU21D;51606;45.000;38.612;2022-11-20T03:08:10;6.31;85.93
65040;HTU21D;51606;45.000;38.612;2022-11-20T03:10:37;6.26;85.99
65040;HTU21D;51606;45.000;38.612;2022-11-20T03:13:03;6.24;86.06
65040;HTU21D;51606;45.000;38.612;2022-11-20T03:15:30;6.20;86.11
65040;HTU21D;51606;45.000;38.612;2022-11-20T03:17:56;6.20;86.09
65040;HTU21D;51606;45.000;38.612;2022-11-20T03:20:23;6.20;85.98
65040;HTU21D;51606;45.000;38.612;2022-11-20T03:22:49;6.21;85.97
65040;HTU21D;51606;45.000;38.612;2022-11-20T03:25:16;6.21;85.96
65040;HTU21D;51606;45.000;38.612;2022-11-20T03:27:42;6.24;85.89
65040;HTU21D;51606;45.000;38.612;2022-11-20T03:30:09;6.26;85.83
65040;HTU21D;51606;45.000;38.612;2022-11-20T03:32:36;6.28;85.83
65040;HTU21D;51606;45.000;38.612;2022-11-20T03:35:02;6.27;85.74
65040;HTU21D;51606;45.000;38.612;2022-11-20T03:37:29;6.23;85.87
65040;HTU21D;51606;45.000;38.612;2022-11-20T03:39:55;6.21;85.99
65040;HTU21D;51606;45.000;38.612;2022-11-20T03:42:22;6.22;85.98
65040;HTU21D;51606;45.000;38.612;2022-11-20T03:45:08;6.16;85.98
65040;HTU21D;51606;45.000;38.612;2022-11-20T03:47:35;6.19;85.97
65040;HTU21D;51606;45.000;38.612;2022-11-20T03:50:02;6.17;85.99
65040;HTU21D;51606;45.000;38.612;2022-11-20T03:52:29;6.17;85.96
65040;HTU21D;51606;45.000;38.612;2022-11-20T03:54:55;6.16;85.96
65040;HTU21D;51606;45.000;38.612;2022-11-20T03:57:22;6.22;85.90
65040;HTU21D;51606;45.000;38.612;2022-11-20T03:59:48;6.27;85.84
65040;HTU21D;51606;45.000;38.612;2022-11-20T04:02:14;6.35;85.80
65040;HTU21D;51606;45.000;38.612;2022-11-20T04:04:41;6.49;85.81
65040;HTU21D;51606;45.000;38.612;2022-11-20T04:07:08;6.66;85.49
65040;HTU21D;51606;45.000;38.612;2022-11-20T04:09:35;6.75;85.29
65040;HTU21D;51606;45.000;38.612;2022-11-20T04:12:01;6.82;85.17
65040;HTU21D;51606;45.000;38.612;2022-11-20T04:14:27;6.87;85.18
65040;HTU21D;51606;45.000;38.612;2022-11-20T04:16:54;6.90;85.22
65040;HTU21D;51606;45.000;38.612;2022-11-20T04:19:20;6.97;85.20
65040;HTU21D;51606;45.000;38.612;2022-11-20T04:21:47;7.03;85.19
65040;HTU21D;51606;45.000;38.612;2022-11-20T04:24:13;7.08;85.12
65040;HTU21D;51606;45.000;38.612;2022-11-20T04:26:40;7.11;85.13
65040;HTU21D;51606;45.000;38.612;2022-11-20T04:29:09;7.14;85.16
65040;HTU21D;51606;45.000;38.612;2022-11-20T04:31:36;7.17;85.21
65040;HTU21D;51606;45.000;38.612;2022-11-20T04:34:04;7.22;85.28
65040;HTU21D;51606;45.000;38.612;2022-11-20T04:36:31;7.28;85.30
65040;HTU21D;51606;45.000;38.612;2022-11-20T04:39:03;7.38;85.26
65040;HTU21D;51606;45.000;38.612;2022-11-20T04:41:33;7.46;85.22
65040;HTU21D;51606;45.000;38.612;2022-11-20T04:44:01;7.53;85.19
65040;HTU21D;51606;45.000;38.612;2022-11-20T04:46:35;7.60;85.12
65040;HTU21D;51606;45.000;38.612;2022-11-20T04:49:03;7.62;85.09
65040;HTU21D;51606;45.000;38.612;2022-11-20T04:51:29;7.60;85.15
65040;HTU21D;51606;45.000;38.612;2022-11-20T04:53:55;7.57;85.31
65040;HTU21D;51606;45.000;38.612;2022-11-20T04:56:22;7.58;85.45
65040;HTU21D;51606;45.000;38.612;2022-11-20T04:58:49;7.61;85.48
65040;HTU21D;51606;45.000;38.612;2022-11-20T05:01:21;7.65;85.48
65040;HTU21D;51606;45.000;38.612;2022-11-20T05:03:48;7.73;85.47
65040;HTU21D;51606;45.000;38.612;2022-11-20T05:06:17;7.87;85.42
65040;HTU21D;51606;45.000;38.612;2022-11-20T05:08:43;8.04;85.26
65040;HTU21D;51606;45.000;38.612;2022-11-20T05:11:12;8.20;85.08
65040;HTU21D;51606;45.000;38.612;2022-11-20T05:13:38;8.35;85.02
65040;HTU21D;51606;45.000;38.612;2022-11-20T05:16:08;8.52;85.03
65040;HTU21D;51606;45.000;38.612;2022-11-20T05:18:36;8.68;84.98
65040;HTU21D;51606;45.000;38.612;2022-11-20T05:21:03;8.85;84.87
65040;HTU21D;51606;45.000;38.612;2022-11-20T05:23:31;8.93;84.99
65040;HTU21D;51606;45.000;38.612;2022-11-20T05:25:58;9.05;85.00
65040;HTU21D;51606;45.000;38.612;2022-11-20T05:28:26;9.27;85.03
65040;HTU21D;51606;45.000;38.612;2022-11-20T05:30:53;9.44;84.77
65040;HTU21D;51606;45.000;38.612;2022-11-20T05:33:20;9.54;84.72
65040;HTU21D;51606;45.000;38.612;2022-11-20T05:35:46;9.61;84.77
65040;HTU21D;51606;45.000;38.612;2022-11-20T05:49:39;11.51;82.73
65040;HTU21D;51606;45.000;38.612;2022-11-20T05:52:05;12.20;81.82
65040;HTU21D;51606;45.000;38.612;2022-11-20T05:54:32;12.59;81.39
65040;HTU21D;51606;45.000;38.612;2022-11-20T05:56:58;12.72;81.99
65040;HTU21D;51606;45.000;38.612;2022-11-20T05:59:24;12.82;82.68
65040;HTU21D;51606;45.000;38.612;2022-11-20T06:01:50;12.81;83.11
65040;HTU21D;51606;45.000;38.612;2022-11-20T06:04:17;12.74;83.71
65040;HTU21D;51606;45.000;38.612;2022-11-20T06:06:43;12.71;83.94
65040;HTU21D;51606;45.000;38.612;2022-11-20T06:09:09;12.64;84.20
65040;HTU21D;51606;45.000;38.612;2022-11-20T06:11:36;12.57;84.36
65040;HTU21D;51606;45.000;38.612;2022-11-20T06:14:03;12.46;84.52
65040;HTU21D;51606;45.000;38.612;2022-11-20T06:16:29;12.35;84.68
65040;HTU21D;51606;45.000;38.612;2022-11-20T06:18:55;12.26;84.84
65040;HTU21D;51606;45.000;38.612;2022-11-20T06:21:22;12.16;84.98
65040;HTU21D;51606;45.000;38.612;2022-11-20T06:23:49;12.05;85.14
65040;HTU21D;51606;45.000;38.612;2022-11-20T06:26:21;12.01;85.20
65040;HTU21D;51606;45.000;38.612;2022-11-20T06:28:48;11.98;85.18
65040;HTU21D;51606;45.000;38.612;2022-11-20T06:31:16;11.97;85.13
65040;HTU21D;51606;45.000;38.612;2022-11-20T06:33:43;11.97;85.09
65040;HTU21D;51606;45.000;38.612;2022-11-20T06:36:15;11.98;85.01
65040;HTU21D;51606;45.000;38.612;2022-11-20T06:38:43;11.96;84.96
65040;HTU21D;51606;45.000;38.612;2022-11-20T06:41:12;11.97;84.93
65040;HTU21D;51606;45.000;38.612;2022-11-20T06:43:40;11.97;84.88
65040;HTU21D;51606;45.000;38.612;2022-11-20T06:46:06;11.96;84.88
65040;HTU21D;51606;45.000;38.612;2022-11-20T06:48:33;11.94;84.87
65040;HTU21D;51606;45.000;38.612;2022-11-20T06:50:59;11.96;84.86
65040;HTU21D;51606;45.000;38.612;2022-11-20T06:53:28;11.94;84.86
65040;HTU21D;51606;45.000;38.612;2022-11-20T06:55:56;11.94;84.87
65040;HTU21D;51606;45.000;38.612;2022-11-20T06:58:26;11.93;84.87
65040;HTU21D;51606;45.000;38.612;2022-11-20T07:00:57;11.94;84.84
65040;HTU21D;51606;45.000;38.612;2022-11-20T07:03:23;11.94;84.81
65040;HTU21D;51606;45.000;38.612;2022-11-20T07:05:49;11.93;84.81
65040;HTU21D;51606;45.000;38.612;2022-11-20T07:08:16;11.93;84.79
65040;HTU21D;51606;45.000;38.612;2022-11-20T07:10:42;11.94;84.77
65040;HTU21D;51606;45.000;38.612;2022-11-20T07:13:09;11.98;84.72
65040;HTU21D;51606;45.000;38.612;2022-11-20T07:18:20;12.00;84.59
65040;HTU21D;51606;45.000;38.612;2022-11-20T07:20:47;11.99;84.60
65040;HTU21D;51606;45.000;38.612;2022-11-20T07:23:13;11.99;84.62
65040;HTU21D;51606;45.000;38.612;2022-11-20T07:25:40;11.98;84.63
65040;HTU21D;51606;45.000;38.612;2022-11-20T07:28:06;11.94;84.67
65040;HTU21D;51606;45.000;38.612;2022-11-20T07:30:32;11.92;84.71
65040;HTU21D;51606;45.000;38.612;2022-11-20T07:32:59;11.89;84.77
65040;HTU21D;51606;45.000;38.612;2022-11-20T07:35:25;11.87;84.80
65040;HTU21D;51606;45.000;38.612;2022-11-20T07:37:52;11.88;84.81
65040;HTU21D;51606;45.000;38.612;2022-11-20T07:40:18;11.88;84.81
65040;HTU21D;51606;45.000;38.612;2022-11-20T07:45:17;11.93;84.76
65040;HTU21D;51606;45.000;38.612;2022-11-20T07:47:43;11.97;84.72
65040;HTU21D;51606;45.000;38.612;2022-11-20T07:50:10;12.00;84.68
65040;HTU21D;51606;45.000;38.612;2022-11-20T07:52:37;12.06;84.65
65040;HTU21D;51606;45.000;38.612;2022-11-20T07:55:04;12.12;84.58
65040;HTU21D;51606;45.000;38.612;2022-11-20T07:57:31;12.16;84.58
65040;HTU21D;51606;45.000;38.612;2022-11-20T07:59:57;12.21;84.57
65040;HTU21D;51606;45.000;38.612;2022-11-20T08:02:24;12.26;84.53
65040;HTU21D;51606;45.000;38.612;2022-11-20T08:04:50;12.29;84.58
65040;HTU21D;51606;45.000;38.612;2022-11-20T08:07:16;12.32;84.57
65040;HTU21D;51606;45.000;38.612;2022-11-20T08:09:43;12.38;84.58
65040;HTU21D;51606;45.000;38.612;2022-11-20T08:12:20;12.46;84.53
65040;HTU21D;51606;45.000;38.612;2022-11-20T08:15:13;12.56;84.42
65040;HTU21D;51606;45.000;38.612;2022-11-20T08:17:39;12.64;84.39
65040;HTU21D;51606;45.000;38.612;2022-11-20T08:20:06;12.72;84.36
65040;HTU21D;51606;45.000;38.612;2022-11-20T08:22:32;12.76;84.38
65040;HTU21D;51606;45.000;38.612;2022-11-20T08:24:59;12.84;84.36
65040;HTU21D;51606;45.000;38.612;2022-11-20T08:27:25;12.88;84.34
65040;HTU21D;51606;45.000;38.612;2022-11-20T08:29:52;12.93;84.39
65040;HTU21D;51606;45.000;38.612;2022-11-20T08:32:18;12.96;84.42
65040;HTU21D;51606;45.000;38.612;2022-11-20T08:34:45;13.04;84.42
65040;HTU21D;51606;45.000;38.612;2022-11-20T08:37:12;13.10;84.38
65040;HTU21D;51606;45.000;38.612;2022-11-20T08:39:38;13.17;84.34
65040;HTU21D;51606;45.000;38.612;2022-11-20T08:42:08;13.24;84.30
65040;HTU21D;51606;45.000;38.612;2022-11-20T08:44:34;13.29;84.29
65040;HTU21D;51606;45.000;38.612;2022-11-20T08:47:01;13.36;84.29
65040;HTU21D;51606;45.000;38.612;2022-11-20T08:49:27;13.43;84.25
65040;HTU21D;51606;45.000;38.612;2022-11-20T08:51:53;13.51;84.18
65040;HTU21D;51606;45.000;38.612;2022-11-20T08:54:21;13.59;84.13
65040;HTU21D;51606;45.000;38.612;2022-11-20T08:56:48;13.63;84.13
65040;HTU21D;51606;45.000;38.612;2022-11-20T08:59:14;13.69;84.10
65040;HTU21D;51606;45.000;38.612;2022-11-20T09:01:41;13.76;84.07
65040;HTU21D;51606;45.000;38.612;2022-11-20T09:04:07;13.81;84.03
65040;HTU21D;51606;45.000;38.612;2022-11-20T09:06:34;13.89;84.00
65040;HTU21D;51606;45.000;38.612;2022-11-20T09:09:00;13.98;83.94
65040;HTU21D;51606;45.000;38.612;2022-11-20T09:11:26;14.12;83.82
65040;HTU21D;51606;45.000;38.612;2022-11-20T09:13:53;14.28;83.64
65040;HTU21D;51606;45.000;38.612;2022-11-20T09:16:19;14.40;83.47
65040;HTU21D;51606;45.000;38.612;2022-11-20T09:18:46;14.55;83.32
65040;HTU21D;51606;45.000;38.612;2022-11-20T09:21:12;14.66;83.17
65040;HTU21D;51606;45.000;38.612;2022-11-20T09:23:40;14.78;83.07
65040;HTU21D;51606;45.000;38.612;2022-11-20T09:26:10;14.87;82.96
65040;HTU21D;51606;45.000;38.612;2022-11-20T09:28:37;14.95;82.87
65040;HTU21D;51606;45.000;38.612;2022-11-20T09:31:08;15.02;82.79
65040;HTU21D;51606;45.000;38.612;2022-11-20T09:33:35;15.09;82.73
65040;HTU21D;51606;45.000;38.612;2022-11-20T09:36:02;15.16;82.74
65040;HTU21D;51606;45.000;38.612;2022-11-20T09:38:28;15.24;82.65
65040;HTU21D;51606;45.000;38.612;2022-11-20T09:41:03;15.31;82.54
65040;HTU21D;51606;45.000;38.612;2022-11-20T09:44:01;15.39;82.50
65040;HTU21D;51606;45.000;38.612;2022-11-20T09:46:42;15.46;82.42
65040;HTU21D;51606;45.000;38.612;2022-11-20T09:54:21;15.93;81.70
65040;HTU21D;51606;45.000;38.612;2022-11-20T09:57:02;16.02;81.52
65040;HTU21D;51606;45.000;38.612;2022-11-20T09:59:39;16.10;81.28
65040;HTU21D;51606;45.000;38.612;2022-11-20T10:05:01;16.27;81.20
65040;HTU21D;51606;45.000;38.612;2022-11-20T10:07:36;16.36;81.07
65040;HTU21D;51606;45.000;38.612;2022-11-20T10:10:13;16.47;80.96
65040;HTU21D;51606;45.000;38.612;2022-11-20T10:13:05;16.57;80.75
65040;HTU21D;51606;45.000;38.612;2022-11-20T10:22:31;16.85;80.69
65040;HTU21D;51606;45.000;38.612;2022-11-20T10:33:29;17.66;79.42
65040;HTU21D;51606;45.000;38.612;2022-11-20T10:35:55;17.99;78.88
65040;HTU21D;51606;45.000;38.612;2022-11-20T10:38:43;18.40;77.89
65040;HTU21D;51606;45.000;38.612;2022-11-20T10:41:26;18.65;77.60
65040;HTU21D;51606;45.000;38.612;2022-11-20T10:44:05;18.81;77.34
65040;HTU21D;51606;45.000;38.612;2022-11-20T10:46:44;18.96;76.97
65040;HTU21D;51606;45.000;38.612;2022-11-20T10:49:16;19.20;76.31
65040;HTU21D;51606;45.000;38.612;2022-11-20T10:52:21;19.51;74.55
65040;HTU21D;51606;45.000;38.612;2022-11-20T11:00:39;20.03;71.77
65040;HTU21D;51606;45.000;38.612;2022-11-20T11:03:27;0.00;69.18
65040;HTU21D;51606;45.000;38.612;2022-11-20T11:08:38;19.99;70.35
65040;HTU21D;51606;45.000;38.612;2022-11-20T11:11:25;20.02;68.26
65040;HTU21D;51606;45.000;38.612;2022-11-20T11:14:05;20.06;67.66
65040;HTU21D;51606;45.000;38.612;2022-11-20T11:16:31;20.13;67.97
65040;HTU21D;51606;45.000;38.612;2022-11-20T11:19:12;20.12;68.04
65040;HTU21D;51606;45.000;38.612;2022-11-20T11:21:53;20.16;67.26
65040;HTU21D;51606;45.000;38.612;2022-11-20T11:24:29;20.19;66.75
65040;HTU21D;51606;45.000;38.612;2022-11-20T11:29:25;20.34;65.93
65040;HTU21D;51606;45.000;38.612;2022-11-20T11:32:17;20.34;65.31
65040;HTU21D;51606;45.000;38.612;2022-11-20T11:34:44;20.32;65.93
65040;HTU21D;51606;45.000;38.612;2022-11-20T11:37:18;20.27;65.27
65040;HTU21D;51606;45.000;38.612;2022-11-20T11:39:47;20.24;65.41
65040;HTU21D;51606;45.000;38.612;2022-11-20T11:42:17;20.18;65.35
65040;HTU21D;51606;45.000;38.612;2022-11-20T11:44:47;20.12;65.48
65040;HTU21D;51606;45.000;38.612;2022-11-20T11:58:09;20.06;64.64
65040;HTU21D;51606;45.000;38.612;2022-11-20T12:00:41;20.04;65.14
65040;HTU21D;51606;45.000;38.612;2022-11-20T12:05:41;19.97;65.81
65040;HTU21D;51606;45.000;38.612;2022-11-20T12:08:25;19.94;65.83
65040;HTU21D;51606;45.000;38.612;2022-11-20T12:11:02;19.94;65.85
65040;HTU21D;51606;45.000;38.612;2022-11-20T12:13:48;19.94;65.79
65040;HTU21D;51606;45.000;38.612;2022-11-20T12:16:19;19.91;65.93
65040;HTU21D;51606;45.000;38.612;2022-11-20T12:18:51;19.90;66.01
65040;HTU21D;51606;45.000;38.612;2022-11-20T12:21:31;19.89;66.00
65040;HTU21D;51606;45.000;38.612;2022-11-20T12:24:39;19.86;65.86
65040;HTU21D;51606;45.000;38.612;2022-11-20T12:30:02;19.76;66.43
65040;HTU21D;51606;45.000;38.612;2022-11-20T12:39:22;19.56;66.56
65040;HTU21D;51606;45.000;38.612;2022-11-20T12:42:16;19.46;66.74
65040;HTU21D;51606;45.000;38.612;2022-11-20T12:48:12;19.37;66.85
65040;HTU21D;51606;45.000;38.612;2022-11-20T12:53:50;19.29;66.68
65040;HTU21D;51606;45.000;38.612;2022-11-20T13:05:14;19.28;66.39
65040;HTU21D;51606;45.000;38.612;2022-11-20T13:07:45;19.28;66.05
65040;HTU21D;51606;45.000;38.612;2022-11-20T13:13:29;19.41;64.26
65040;HTU21D;51606;45.000;38.612;2022-11-20T13:16:06;19.40;64.14
65040;HTU21D;51606;45.000;38.612;2022-11-20T13:18:38;19.38;63.82
65040;HTU21D;51606;45.000;38.612;2022-11-20T13:21:20;19.32;63.35
65040;HTU21D;51606;45.000;38.612;2022-11-20T13:23:47;19.27;63.89
65040;HTU21D;51606;45.000;38.612;2022-11-20T13:26:23;19.18;63.86
65040;HTU21D;51606;45.000;38.612;2022-11-20T13:29:17;19.07;63.79
65040;HTU21D;51606;45.000;38.612;2022-11-20T13:31:46;18.98;64.17
65040;HTU21D;51606;45.000;38.612;2022-11-20T13:34:23;18.91;64.02
65040;HTU21D;51606;45.000;38.612;2022-11-20T13:36:53;18.81;64.16
65040;HTU21D;51606;45.000;38.612;2022-11-20T13:39:28;18.77;63.82
65040;HTU21D;51606;45.000;38.612;2022-11-20T13:42:03;18.72;63.57
65040;HTU21D;51606;45.000;38.612;2022-11-20T13:44:54;18.66;63.31
65040;HTU21D;51606;45.000;38.612;2022-11-20T13:47:26;18.65;63.17
65040;HTU21D;51606;45.000;38.612;2022-11-20T13:49:55;18.57;63.42
65040;HTU21D;51606;45.000;38.612;2022-11-20T14:00:44;18.25;63.76
65040;HTU21D;51606;45.000;38.612;2022-11-20T14:08:59;17.99;64.02
65040;HTU21D;51606;45.000;38.612;2022-11-20T14:11:28;17.90;64.24
65040;HTU21D;51606;45.000;38.612;2022-11-20T14:14:30;17.80;64.50
65040;HTU21D;51606;45.000;38.612;2022-11-20T14:16:50;17.70;64.68
65040;HTU21D;51606;45.000;38.612;2022-11-20T14:22:36;17.67;64.50
65040;HTU21D;51606;45.000;38.612;2022-11-20T14:24:38;17.59;64.73
65040;HTU21D;51606;45.000;38.612;2022-11-20T14:27:04;17.47;64.99
65040;HTU21D;51606;45.000;38.612;2022-11-20T14:29:36;17.37;65.18
65040;HTU21D;51606;45.000;38.612;2022-11-20T14:32:04;17.24;65.46
65040;HTU21D;51606;45.000;38.612;2022-11-20T14:34:33;17.13;65.70
65040;HTU21D;51606;45.000;38.612;2022-11-20T14:37:10;17.06;65.82
65040;HTU21D;51606;45.000;38.612;2022-11-20T14:39:40;17.02;65.88
65040;HTU21D;51606;45.000;38.612;2022-11-20T14:42:23;16.94;65.99
65040;HTU21D;51606;45.000;38.612;2022-11-20T14:44:52;16.90;66.09
65040;HTU21D;51606;45.000;38.612;2022-11-20T14:47:29;16.88;66.07
65040;HTU21D;51606;45.000;38.612;2022-11-20T14:49:57;16.81;66.22
65040;HTU21D;51606;45.000;38.612;2022-11-20T14:52:25;16.77;66.35
65040;HTU21D;51606;45.000;38.612;2022-11-20T14:55:01;16.71;66.40
65040;HTU21D;51606;45.000;38.612;2022-11-20T14:57:34;16.65;66.56
65040;HTU21D;51606;45.000;38.612;2022-11-20T15:00:20;16.64;66.49
65040;HTU21D;51606;45.000;38.612;2022-11-20T15:02:48;16.64;66.53
65040;HTU21D;51606;45.000;38.612;2022-11-20T15:05:45;16.62;66.43
65040;HTU21D;51606;45.000;38.612;2022-11-20T15:08:13;16.61;66.52
65040;HTU21D;51606;45.000;38.612;2022-11-20T15:13:37;16.70;66.29
65040;HTU21D;51606;45.000;38.612;2022-11-20T15:16:24;16.71;66.23
65040;HTU21D;51606;45.000;38.612;2022-11-20T15:18:53;16.70;66.33
65040;HTU21D;51606;45.000;38.612;2022-11-20T15:21:21;16.64;66.44
65040;HTU21D;51606;45.000;38.612;2022-11-20T15:23:47;16.58;66.59
65040;HTU21D;51606;45.000;38.612;2022-11-20T15:26:22;16.48;66.84
65040;HTU21D;51606;45.000;38.612;2022-11-20T15:28:53;16.35;67.10
65040;HTU21D;51606;45.000;38.612;2022-11-20T15:31:21;16.25;67.33
65040;HTU21D;51606;45.000;38.612;2022-11-20T15:33:49;16.14;67.54
65040;HTU21D;51606;45.000;38.612;2022-11-20T15:36:20;16.04;67.70
65040;HTU21D;51606;45.000;38.612;2022-11-20T15:38:47;15.92;67.90
65040;HTU21D;51606;45.000;38.612;2022-11-20T15:41:23;15.83;68.07
65040;HTU21D;51606;45.000;38.612;2022-11-20T15:46:39;15.58;68.41
65040;HTU21D;51606;45.000;38.612;2022-11-20T15:52:09;15.37;68.79
65040;HTU21D;51606;45.000;38.612;2022-11-20T15:54:41;15.26;68.95
65040;HTU21D;51606;45.000;38.612;2022-11-20T15:57:10;15.17;69.07
65040;HTU21D;51606;45.000;38.612;2022-11-20T15:59:51;15.12;69.14
65040;HTU21D;51606;45.000;38.612;2022-11-20T16:02:18;15.08;69.21
65040;HTU21D;51606;45.000;38.612;2022-11-20T16:04:44;15.08;69.18
65040;HTU21D;51606;45.000;38.612;2022-11-20T16:07:10;15.10;69.10
65040;HTU21D;51606;45.000;38.612;2022-11-20T16:09:38;15.12;69.07
65040;HTU21D;51606;45.000;38.612;2022-11-20T16:12:04;15.09;69.04
65040;HTU21D;51606;45.000;38.612;2022-11-20T16:17:51;15.00;69.16
65040;HTU21D;51606;45.000;38.612;2022-11-20T16:20:18;14.94;69.25
65040;HTU21D;51606;45.000;38.612;2022-11-20T16:22:44;14.88;69.35
65040;HTU21D;51606;45.000;38.612;2022-11-20T16:25:11;14.84;69.44
65040;HTU21D;51606;45.000;38.612;2022-11-20T16:27:37;14.78;69.55
65040;HTU21D;51606;45.000;38.612;2022-11-20T16:30:04;14.73;69.64
65040;HTU21D;51606;45.000;38.612;2022-11-20T16:35:18;14.68;69.62
65040;HTU21D;51606;45.000;38.612;2022-11-20T16:37:44;14.62;69.74
65040;HTU21D;51606;45.000;38.612;2022-11-20T16:40:11;14.57;69.84
65040;HTU21D;51606;45.000;38.612;2022-11-20T16:42:37;14.51;69.91
65040;HTU21D;51606;45.000;38.612;2022-11-20T16:45:04;14.45;70.02
65040;HTU21D;51606;45.000;38.612;2022-11-20T16:47:34;14.40;70.13
65040;HTU21D;51606;45.000;38.612;2022-11-20T16:50:27;14.36;70.22
65040;HTU21D;51606;45.000;38.612;2022-11-20T16:53:10;14.28;70.33
65040;HTU21D;51606;45.000;38.612;2022-11-20T16:55:37;14.18;70.47
65040;HTU21D;51606;45.000;38.612;2022-11-20T16:58:05;14.14;70.58
65040;HTU21D;51606;45.000;38.612;2022-11-20T17:00:31;14.11;70.62
65040;HTU21D;51606;45.000;38.612;2022-11-20T17:03:03;14.09;70.61
65040;HTU21D;51606;45.000;38.612;2022-11-20T17:05:31;14.06;70.67
65040;HTU21D;51606;45.000;38.612;2022-11-20T17:07:57;14.04;70.68
65040;HTU21D;51606;45.000;38.612;2022-11-20T17:10:24;14.03;70.66
65040;HTU21D;51606;45.000;38.612;2022-11-20T17:12:52;13.98;70.71
65040;HTU21D;51606;45.000;38.612;2022-11-20T17:15:19;13.94;70.79
65040;HTU21D;51606;45.000;38.612;2022-11-20T17:17:45;13.92;70.80
65040;HTU21D;51606;45.000;38.612;2022-11-20T17:20:12;13.90;70.84
65040;HTU21D;51606;45.000;38.612;2022-11-20T17:22:38;13.85;70.90
65040;HTU21D;51606;45.000;38.612;2022-11-20T17:25:06;13.85;70.93
65040;HTU21D;51606;45.000;38.612;2022-11-20T17:27:33;13.92;70.81
65040;HTU21D;51606;45.000;38.612;2022-11-20T17:29:59;13.97;70.67
65040;HTU21D;51606;45.000;38.612;2022-11-20T17:32:26;14.03;70.59
65040;HTU21D;51606;45.000;38.612;2022-11-20T17:34:53;14.07;70.54
65040;HTU21D;51606;45.000;38.612;2022-11-20T17:37:19;14.08;70.52
65040;HTU21D;51606;45.000;38.612;2022-11-20T17:39:45;14.06;70.56
65040;HTU21D;51606;45.000;38.612;2022-11-20T17:42:14;14.00;70.67